sensor_id;sensor_type;location;lat;lon;timestamp;pressure;altitude;pressure_sealevel;temperature;humidity
20013;BME280;10167;42.852;23.042;2022-08-20T00:00:25;94513.09;;;20.97;100.00
20013;BME280;10167;42.852;23.042;2022-08-20T00:02:54;94517.00;;;20.83;100.00
20013;BME280;10167;42.852;23.042;2022-08-20T00:05:25;94517.38;;;20.67;100.00
20013;BME280;10167;42.852;23.042;2022-08-20T00:07:53;94518.66;;;20.70;100.00
20013;BME280;10167;42.852;23.042;2022-08-20T00:10:21;94514.69;;;20.67;100.00
20013;BME280;10167;42.852;23.042;2022-08-20T00:17:53;94514.22;;;20.96;100.00
20013;BME280;10167;42.852;23.042;2022-08-20T00:20:24;94511.50;;;20.96;100.00
20013;BME280;10167;42.852;23.042;2022-08-20T00:22:51;94509.03;;;20.78;100.00
20013;BME280;10167;42.852;23.042;2022-08-20T00:25:19;94503.88;;;20.59;100.00
20013;BME280;10167;42.852;23.042;2022-08-20T00:27:47;94507.16;;;20.47;100.00
20013;BME280;10167;42.852;23.042;2022-08-20T00:30:15;94501.28;;;20.45;100.00
20013;BME280;10167;42.852;23.042;2022-08-20T00:32:45;94493.09;;;20.50;100.00
20013;BME280;10167;42.852;23.042;2022-08-20T00:40:20;94491.94;;;20.43;100.00
20013;BME280;10167;42.852;23.042;2022-08-20T00:42:56;94503.59;;;20.16;100.00
20013;BME280;10167;42.852;23.042;2022-08-20T00:45:25;94505.84;;;20.00;100.00
20013;BME280;10167;42.852;23.042;2022-08-20T00:47:53;94494.59;;;19.98;100.00
20013;BME280;10167;42.852;23.042;2022-08-20T00:50:26;94494.75;;;19.93;100.00
20013;BME280;10167;42.852;23.042;2022-08-20T00:52:55;94497.47;;;20.02;100.00
20013;BME280;10167;42.852;23.042;2022-08-20T00:55:25;94488.69;;;20.10;100.00
20013;BME280;10167;42.852;23.042;2022-08-20T01:03:09;94486.88;;;20.19;100.00
20013;BME280;10167;42.852;23.042;2022-08-20T01:05:38;94483.50;;;20.13;100.00
20013;BME280;10167;42.852;23.042;2022-08-20T01:08:06;94475.94;;;20.15;100.00
20013;BME280;10167;42.852;23.042;2022-08-20T01:10:37;94469.25;;;20.35;100.00
20013;BME280;10167;42.852;23.042;2022-08-20T01:13:07;94461.63;;;20.28;100.00
20013;BME280;10167;42.852;23.042;2022-08-20T01:15:38;94461.69;;;20.37;100.00
20013;BME280;10167;42.852;23.042;2022-08-20T01:18:10;94461.72;;;20.46;100.00
20013;BME280;10167;42.852;23.042;2022-08-20T01:25:44;94464.25;;;20.20;100.00
20013;BME280;10167;42.852;23.042;2022-08-20T01:28:13;94462.00;;;20.13;100.00
20013;BME280;10167;42.852;23.042;2022-08-20T01:30:42;94465.97;;;19.93;100.00
20013;BME280;10167;42.852;23.042;2022-08-20T01:33:10;94470.03;;;19.69;100.00
20013;BME280;10167;42.852;23.042;2022-08-20T01:35:39;94472.47;;;19.56;100.00
20013;BME280;10167;42.852;23.042;2022-08-20T01:38:08;94472.66;;;19.46;100.00
20013;BME280;10167;42.852;23.042;2022-08-20T01:40:51;94467.88;;;19.43;100.00
20013;BME280;10167;42.852;23.042;2022-08-20T01:48:28;94468.16;;;19.06;100.00
20013;BME280;10167;42.852;23.042;2022-08-20T01:51:01;94470.56;;;18.94;100.00
20013;BME280;10167;42.852;23.042;2022-08-20T01:53:32;94468.75;;;18.89;100.00
20013;BME280;10167;42.852;23.042;2022-08-20T01:56:01;94461.50;;;18.90;100.00
20013;BME280;10167;42.852;23.042;2022-08-20T01:58:29;94463.78;;;18.96;100.00
20013;BME280;10167;42.852;23.042;2022-08-20T02:00:57;94455.13;;;18.99;100.00
20013;BME280;10167;42.852;23.042;2022-08-20T02:03:24;94450.78;;;19.03;100.00
20013;BME280;10167;42.852;23.042;2022-08-20T02:10:56;94458.38;;;19.23;100.00
20013;BME280;10167;42.852;23.042;2022-08-20T02:13:24;94452.81;;;19.34;100.00
20013;BME280;10167;42.852;23.042;2022-08-20T02:15:51;94448.50;;;19.46;100.00
20013;BME280;10167;42.852;23.042;2022-08-20T02:18:19;94452.28;;;19.59;100.00
20013;BME280;10167;42.852;23.042;2022-08-20T02:20:47;94455.31;;;19.66;100.00
20013;BME280;10167;42.852;23.042;2022-08-20T02:23:14;94452.09;;;19.78;100.00
20013;BME280;10167;42.852;23.042;2022-08-20T02:25:46;94461.19;;;19.68;100.00
20013;BME280;10167;42.852;23.042;2022-08-20T02:33:19;94470.78;;;19.33;100.00
20013;BME280;10167;42.852;23.042;2022-08-20T02:35:51;94464.47;;;19.29;100.00
20013;BME280;10167;42.852;23.042;2022-08-20T02:38:22;94459.19;;;19.24;100.00
20013;BME280;10167;42.852;23.042;2022-08-20T02:40:50;94460.28;;;19.23;100.00
20013;BME280;10167;42.852;23.042;2022-08-20T02:43:18;94462.59;;;19.16;100.00
20013;BME280;10167;42.852;23.042;2022-08-20T02:45:45;94461.88;;;19.24;100.00
20013;BME280;10167;42.852;23.042;2022-08-20T02:48:16;94465.16;;;19.21;100.00
20013;BME280;10167;42.852;23.042;2022-08-20T02:55:47;94466.13;;;19.52;100.00
20013;BME280;10167;42.852;23.042;2022-08-20T02:58:15;94458.88;;;19.75;100.00
20013;BME280;10167;42.852;23.042;2022-08-20T03:00:44;94463.69;;;19.87;100.00
20013;BME280;10167;42.852;23.042;2022-08-20T03:03:12;94463.47;;;19.97;100.00
20013;BME280;10167;42.852;23.042;2022-08-20T03:05:42;94456.06;;;20.03;100.00
20013;BME280;10167;42.852;23.042;2022-08-20T03:08:12;94457.84;;;20.07;100.00
20013;BME280;10167;42.852;23.042;2022-08-20T03:10:42;94465.59;;;19.86;100.00
20013;BME280;10167;42.852;23.042;2022-08-20T03:18:14;94460.47;;;19.99;100.00
20013;BME280;10167;42.852;23.042;2022-08-20T03:20:43;94454.63;;;19.97;100.00
20013;BME280;10167;42.852;23.042;2022-08-20T03:23:12;94459.84;;;20.02;100.00
20013;BME280;10167;42.852;23.042;2022-08-20T03:25:40;94458.41;;;19.96;100.00
20013;BME280;10167;42.852;23.042;2022-08-20T03:28:08;94467.31;;;19.82;100.00
20013;BME280;10167;42.852;23.042;2022-08-20T03:30:36;94469.53;;;19.67;100.00
20013;BME280;10167;42.852;23.042;2022-08-20T03:33:03;94474.94;;;19.53;100.00
20013;BME280;10167;42.852;23.042;2022-08-20T03:40:36;94481.59;;;19.42;100.00
20013;BME280;10167;42.852;23.042;2022-08-20T03:43:06;94485.00;;;19.34;100.00
20013;BME280;10167;42.852;23.042;2022-08-20T03:45:35;94488.91;;;19.28;100.00
20013;BME280;10167;42.852;23.042;2022-08-20T03:48:04;94483.69;;;19.45;100.00
20013;BME280;10167;42.852;23.042;2022-08-20T03:50:33;94484.94;;;19.52;100.00
20013;BME280;10167;42.852;23.042;2022-08-20T03:53:02;94482.53;;;19.37;100.00
20013;BME280;10167;42.852;23.042;2022-08-20T03:55:30;94477.75;;;19.34;100.00
20013;BME280;10167;42.852;23.042;2022-08-20T04:03:03;94478.19;;;19.28;100.00
20013;BME280;10167;42.852;23.042;2022-08-20T04:05:31;94475.19;;;19.29;100.00
20013;BME280;10167;42.852;23.042;2022-08-20T04:08:01;94482.25;;;19.25;100.00
20013;BME280;10167;42.852;23.042;2022-08-20T04:10:30;94477.69;;;18.98;100.00
20013;BME280;10167;42.852;23.042;2022-08-20T04:12:58;94468.06;;;18.70;100.00
20013;BME280;10167;42.852;23.042;2022-08-20T04:15:25;94469.75;;;18.66;100.00
20013;BME280;10167;42.852;23.042;2022-08-20T04:17:53;94463.50;;;18.84;100.00
20013;BME280;10167;42.852;23.042;2022-08-20T04:25:25;94479.00;;;18.87;100.00
20013;BME280;10167;42.852;23.042;2022-08-20T04:27:56;94480.78;;;18.78;100.00
20013;BME280;10167;42.852;23.042;2022-08-20T04:30:25;94483.97;;;18.80;100.00
20013;BME280;10167;42.852;23.042;2022-08-20T04:32:53;94495.00;;;18.92;100.00
20013;BME280;10167;42.852;23.042;2022-08-20T04:35:22;94498.56;;;19.15;100.00
20013;BME280;10167;42.852;23.042;2022-08-20T04:37:57;94497.84;;;19.37;100.00
20013;BME280;10167;42.852;23.042;2022-08-20T04:40:26;94489.28;;;19.62;100.00
20013;BME280;10167;42.852;23.042;2022-08-20T04:48:15;94490.56;;;20.09;100.00
20013;BME280;10167;42.852;23.042;2022-08-20T04:50:44;94490.34;;;20.19;100.00
20013;BME280;10167;42.852;23.042;2022-08-20T04:53:15;94493.34;;;20.40;100.00
20013;BME280;10167;42.852;23.042;2022-08-20T04:55:44;94491.91;;;20.65;100.00
20013;BME280;10167;42.852;23.042;2022-08-20T04:58:15;94491.47;;;20.80;100.00
20013;BME280;10167;42.852;23.042;2022-08-20T05:00:45;94497.06;;;20.84;100.00
20013;BME280;10167;42.852;23.042;2022-08-20T05:03:15;94501.03;;;20.86;100.00
20013;BME280;10167;42.852;23.042;2022-08-20T05:09:18;94497.00;;;21.15;100.00
20013;BME280;10167;42.852;23.042;2022-08-20T05:11:46;94496.59;;;21.21;100.00
20013;BME280;10167;42.852;23.042;2022-08-20T05:14:13;94500.72;;;21.36;100.00
20013;BME280;10167;42.852;23.042;2022-08-20T05:16:41;94498.56;;;21.64;100.00
20013;BME280;10167;42.852;23.042;2022-08-20T05:19:11;94502.22;;;21.85;100.00
20013;BME280;10167;42.852;23.042;2022-08-20T05:21:39;94501.94;;;22.04;100.00
20013;BME280;10167;42.852;23.042;2022-08-20T05:24:07;94509.84;;;22.18;100.00
20013;BME280;10167;42.852;23.042;2022-08-20T05:29:19;94501.41;;;22.54;100.00
20013;BME280;10167;42.852;23.042;2022-08-20T05:31:47;94493.91;;;22.68;100.00
20013;BME280;10167;42.852;23.042;2022-08-20T05:34:15;94481.00;;;22.91;100.00
20013;BME280;10167;42.852;23.042;2022-08-20T05:36:44;94483.47;;;23.04;100.00
20013;BME280;10167;42.852;23.042;2022-08-20T05:39:16;94488.31;;;23.20;100.00
20013;BME280;10167;42.852;23.042;2022-08-20T05:41:44;94493.19;;;23.26;100.00
20013;BME280;10167;42.852;23.042;2022-08-20T05:44:11;94497.59;;;23.39;100.00
20013;BME280;10167;42.852;23.042;2022-08-20T05:51:44;94499.31;;;23.73;100.00
20013;BME280;10167;42.852;23.042;2022-08-20T05:54:12;94486.91;;;23.93;100.00
20013;BME280;10167;42.852;23.042;2022-08-20T05:56:40;94475.81;;;24.07;100.00
20013;BME280;10167;42.852;23.042;2022-08-20T05:59:08;94478.53;;;24.28;100.00
20013;BME280;10167;42.852;23.042;2022-08-20T06:01:37;94480.06;;;24.49;100.00
20013;BME280;10167;42.852;23.042;2022-08-20T06:04:06;94477.50;;;24.65;100.00
20013;BME280;10167;42.852;23.042;2022-08-20T06:06:56;94480.53;;;24.96;100.00
20013;BME280;10167;42.852;23.042;2022-08-20T06:14:29;94483.38;;;25.49;100.00
20013;BME280;10167;42.852;23.042;2022-08-20T06:17:02;94480.75;;;25.64;100.00
20013;BME280;10167;42.852;23.042;2022-08-20T06:19:31;94476.91;;;25.78;100.00
20013;BME280;10167;42.852;23.042;2022-08-20T06:22:01;94476.41;;;25.88;100.00
20013;BME280;10167;42.852;23.042;2022-08-20T06:24:47;94475.31;;;26.17;100.00
20013;BME280;10167;42.852;23.042;2022-08-20T06:27:15;94477.22;;;26.28;100.00
20013;BME280;10167;42.852;23.042;2022-08-20T06:29:43;94476.22;;;26.49;100.00
20013;BME280;10167;42.852;23.042;2022-08-20T06:37:15;94456.38;;;26.76;100.00
20013;BME280;10167;42.852;23.042;2022-08-20T06:39:44;94463.09;;;26.94;100.00
20013;BME280;10167;42.852;23.042;2022-08-20T06:42:12;94453.53;;;27.00;100.00
20013;BME280;10167;42.852;23.042;2022-08-20T06:44:47;94454.03;;;26.90;100.00
20013;BME280;10167;42.852;23.042;2022-08-20T06:47:16;94457.38;;;26.99;100.00
20013;BME280;10167;42.852;23.042;2022-08-20T06:49:44;94456.84;;;27.09;100.00
20013;BME280;10167;42.852;23.042;2022-08-20T06:52:13;94455.84;;;27.33;100.00
20013;BME280;10167;42.852;23.042;2022-08-20T06:59:47;94465.53;;;27.81;100.00
20013;BME280;10167;42.852;23.042;2022-08-20T07:02:20;94462.03;;;27.81;100.00
20013;BME280;10167;42.852;23.042;2022-08-20T07:04:56;94455.69;;;27.77;100.00
20013;BME280;10167;42.852;23.042;2022-08-20T07:07:23;94459.38;;;27.85;99.15
20013;BME280;10167;42.852;23.042;2022-08-20T07:09:58;94452.28;;;27.80;99.06
20013;BME280;10167;42.852;23.042;2022-08-20T07:12:26;94452.44;;;27.87;99.39
20013;BME280;10167;42.852;23.042;2022-08-20T07:14:54;94449.06;;;27.94;100.00
20013;BME280;10167;42.852;23.042;2022-08-20T07:22:26;94444.72;;;28.28;96.52
20013;BME280;10167;42.852;23.042;2022-08-20T07:24:54;94442.22;;;28.38;96.15
20013;BME280;10167;42.852;23.042;2022-08-20T07:27:22;94438.13;;;28.48;94.96
20013;BME280;10167;42.852;23.042;2022-08-20T07:29:50;94434.00;;;28.58;95.13
20013;BME280;10167;42.852;23.042;2022-08-20T07:32:41;94435.41;;;28.71;94.33
20013;BME280;10167;42.852;23.042;2022-08-20T07:35:13;94435.75;;;28.88;93.97
20013;BME280;10167;42.852;23.042;2022-08-20T07:37:44;94442.41;;;28.91;92.03
20013;BME280;10167;42.852;23.042;2022-08-20T07:45:15;94442.31;;;29.56;86.59
20013;BME280;10167;42.852;23.042;2022-08-20T07:47:45;94443.09;;;29.56;87.63
20013;BME280;10167;42.852;23.042;2022-08-20T07:50:15;94451.25;;;29.83;84.56
20013;BME280;10167;42.852;23.042;2022-08-20T07:52:43;94451.88;;;29.99;82.07
20013;BME280;10167;42.852;23.042;2022-08-20T07:55:14;94441.75;;;30.00;81.67
20013;BME280;10167;42.852;23.042;2022-08-20T07:57:42;94444.28;;;30.15;83.19
20013;BME280;10167;42.852;23.042;2022-08-20T08:00:15;94439.34;;;30.24;81.22
20013;BME280;10167;42.852;23.042;2022-08-20T08:07:25;94435.59;;;30.40;79.52
20013;BME280;10167;42.852;23.042;2022-08-20T08:09:53;94438.03;;;30.48;80.61
20013;BME280;10167;42.852;23.042;2022-08-20T08:12:22;94432.84;;;30.70;77.30
20013;BME280;10167;42.852;23.042;2022-08-20T08:14:52;94429.88;;;30.89;75.74
20013;BME280;10167;42.852;23.042;2022-08-20T08:17:21;94428.03;;;31.00;77.91
20013;BME280;10167;42.852;23.042;2022-08-20T08:19:49;94427.03;;;31.15;73.55
20013;BME280;10167;42.852;23.042;2022-08-20T08:22:18;94425.91;;;31.23;71.98
20013;BME280;10167;42.852;23.042;2022-08-20T08:29:49;94428.81;;;31.52;69.98
20013;BME280;10167;42.852;23.042;2022-08-20T08:32:17;94422.97;;;31.53;68.73
20013;BME280;10167;42.852;23.042;2022-08-20T08:34:45;94420.00;;;31.72;69.74
20013;BME280;10167;42.852;23.042;2022-08-20T08:37:13;94416.47;;;31.72;66.92
20013;BME280;10167;42.852;23.042;2022-08-20T08:39:41;94424.44;;;31.98;66.89
20013;BME280;10167;42.852;23.042;2022-08-20T08:42:19;94417.00;;;31.99;61.85
20013;BME280;10167;42.852;23.042;2022-08-20T08:44:52;94419.75;;;32.06;63.88
20013;BME280;10167;42.852;23.042;2022-08-20T08:52:21;94410.50;;;32.28;62.21
20013;BME280;10167;42.852;23.042;2022-08-20T08:54:52;94409.78;;;32.45;63.06
20013;BME280;10167;42.852;23.042;2022-08-20T08:57:20;94400.75;;;32.38;62.13
20013;BME280;10167;42.852;23.042;2022-08-20T08:59:52;94408.63;;;32.57;65.26
20013;BME280;10167;42.852;23.042;2022-08-20T09:02:32;94398.13;;;32.80;62.22
20013;BME280;10167;42.852;23.042;2022-08-20T09:05:03;94393.41;;;32.88;60.67
20013;BME280;10167;42.852;23.042;2022-08-20T09:07:41;94396.94;;;33.10;59.08
20013;BME280;10167;42.852;23.042;2022-08-20T09:12:56;94397.31;;;32.76;59.41
20013;BME280;10167;42.852;23.042;2022-08-20T09:15:23;94398.16;;;33.23;60.85
20013;BME280;10167;42.852;23.042;2022-08-20T09:17:51;94389.91;;;33.37;58.67
20013;BME280;10167;42.852;23.042;2022-08-20T09:20:19;94385.97;;;33.49;56.79
20013;BME280;10167;42.852;23.042;2022-08-20T09:22:53;94383.19;;;33.63;57.68
20013;BME280;10167;42.852;23.042;2022-08-20T09:25:21;94394.56;;;33.76;57.47
20013;BME280;10167;42.852;23.042;2022-08-20T09:27:49;94385.84;;;33.99;56.84
20013;BME280;10167;42.852;23.042;2022-08-20T09:35:21;94383.81;;;34.17;51.56
20013;BME280;10167;42.852;23.042;2022-08-20T09:37:48;94381.44;;;34.30;50.27
20013;BME280;10167;42.852;23.042;2022-08-20T09:40:18;94377.91;;;34.26;50.70
20013;BME280;10167;42.852;23.042;2022-08-20T09:42:48;94383.34;;;34.40;50.28
20013;BME280;10167;42.852;23.042;2022-08-20T09:45:16;94381.97;;;34.69;48.21
20013;BME280;10167;42.852;23.042;2022-08-20T09:47:45;94391.03;;;34.70;48.24
20013;BME280;10167;42.852;23.042;2022-08-20T09:53:26;94383.44;;;34.88;49.93
20013;BME280;10167;42.852;23.042;2022-08-20T09:55:55;94384.19;;;34.95;46.54
20013;BME280;10167;42.852;23.042;2022-08-20T09:58:26;94397.97;;;34.92;47.42
20013;BME280;10167;42.852;23.042;2022-08-20T10:00:58;94376.47;;;35.28;48.49
20013;BME280;10167;42.852;23.042;2022-08-20T10:03:27;94377.66;;;35.23;44.43
20013;BME280;10167;42.852;23.042;2022-08-20T10:05:55;94389.47;;;35.27;44.16
20013;BME280;10167;42.852;23.042;2022-08-20T10:08:22;94378.22;;;35.52;45.06
20013;BME280;10167;42.852;23.042;2022-08-20T10:13:34;94375.75;;;35.61;43.74
20013;BME280;10167;42.852;23.042;2022-08-20T10:16:02;94388.47;;;35.48;42.56
20013;BME280;10167;42.852;23.042;2022-08-20T10:18:30;94373.94;;;35.44;42.33
20013;BME280;10167;42.852;23.042;2022-08-20T10:20:57;94374.50;;;35.28;43.39
20013;BME280;10167;42.852;23.042;2022-08-20T10:23:25;94382.88;;;35.11;43.51
20013;BME280;10167;42.852;23.042;2022-08-20T10:25:52;94376.03;;;34.81;43.93
20013;BME280;10167;42.852;23.042;2022-08-20T10:28:20;94384.63;;;34.90;44.83
20013;BME280;10167;42.852;23.042;2022-08-20T10:35:51;94377.56;;;34.13;46.74
20013;BME280;10167;42.852;23.042;2022-08-20T10:38:26;94377.53;;;34.16;47.96
20013;BME280;10167;42.852;23.042;2022-08-20T10:40:53;94369.78;;;33.90;48.55
20013;BME280;10167;42.852;23.042;2022-08-20T10:43:21;94365.09;;;33.91;48.57
20013;BME280;10167;42.852;23.042;2022-08-20T10:45:49;94360.44;;;33.66;48.19
20013;BME280;10167;42.852;23.042;2022-08-20T10:48:17;94355.00;;;33.20;49.28
20013;BME280;10167;42.852;23.042;2022-08-20T10:50:48;94348.72;;;33.44;51.21
20013;BME280;10167;42.852;23.042;2022-08-20T10:58:05;94335.66;;;33.87;52.84
20013;BME280;10167;42.852;23.042;2022-08-20T11:00:33;94335.47;;;34.34;48.60
20013;BME280;10167;42.852;23.042;2022-08-20T11:03:02;94331.69;;;34.69;46.60
20013;BME280;10167;42.852;23.042;2022-08-20T11:05:30;94332.44;;;34.80;47.58
20013;BME280;10167;42.852;23.042;2022-08-20T11:08:00;94330.28;;;34.46;47.77
20013;BME280;10167;42.852;23.042;2022-08-20T11:10:31;94319.81;;;34.27;47.13
20013;BME280;10167;42.852;23.042;2022-08-20T11:13:00;94312.63;;;34.44;47.47
20013;BME280;10167;42.852;23.042;2022-08-20T11:20:31;94301.44;;;35.20;47.96
20013;BME280;10167;42.852;23.042;2022-08-20T11:22:59;94298.53;;;35.68;45.32
20013;BME280;10167;42.852;23.042;2022-08-20T11:25:27;94289.69;;;35.88;43.59
20013;BME280;10167;42.852;23.042;2022-08-20T11:27:56;94281.25;;;36.32;42.86
20013;BME280;10167;42.852;23.042;2022-08-20T11:30:26;94279.34;;;36.26;42.16
20013;BME280;10167;42.852;23.042;2022-08-20T11:32:55;94278.94;;;36.27;44.04
20013;BME280;10167;42.852;23.042;2022-08-20T11:35:24;94278.69;;;35.88;42.92
20013;BME280;10167;42.852;23.042;2022-08-20T11:43:11;94267.06;;;34.43;45.83
20013;BME280;10167;42.852;23.042;2022-08-20T11:45:42;94275.88;;;34.13;48.94
20013;BME280;10167;42.852;23.042;2022-08-20T11:48:10;94270.63;;;33.63;49.22
20013;BME280;10167;42.852;23.042;2022-08-20T11:50:38;94267.19;;;33.34;50.59
20013;BME280;10167;42.852;23.042;2022-08-20T11:53:06;94258.19;;;33.19;51.78
20013;BME280;10167;42.852;23.042;2022-08-20T11:55:35;94267.63;;;33.08;52.09
20013;BME280;10167;42.852;23.042;2022-08-20T11:58:03;94273.16;;;32.83;54.96
20013;BME280;10167;42.852;23.042;2022-08-20T12:04:53;94296.22;;;32.39;56.68
20013;BME280;10167;42.852;23.042;2022-08-20T12:07:23;94297.75;;;32.23;58.50
20013;BME280;10167;42.852;23.042;2022-08-20T12:09:52;94306.25;;;31.89;66.16
20013;BME280;10167;42.852;23.042;2022-08-20T12:12:20;94323.84;;;31.12;100.00
20013;BME280;10167;42.852;23.042;2022-08-20T12:14:50;94326.59;;;29.94;100.00
20013;BME280;10167;42.852;23.042;2022-08-20T12:17:20;94328.78;;;29.21;100.00
20013;BME280;10167;42.852;23.042;2022-08-20T12:19:51;94317.78;;;28.65;100.00
20013;BME280;10167;42.852;23.042;2022-08-20T12:26:48;94294.88;;;28.01;100.00
20013;BME280;10167;42.852;23.042;2022-08-20T12:29:16;94295.47;;;27.91;100.00
20013;BME280;10167;42.852;23.042;2022-08-20T12:31:44;94288.31;;;27.83;100.00
20013;BME280;10167;42.852;23.042;2022-08-20T12:34:11;94288.03;;;27.69;100.00
20013;BME280;10167;42.852;23.042;2022-08-20T12:36:42;94268.53;;;27.63;100.00
20013;BME280;10167;42.852;23.042;2022-08-20T12:39:10;94264.50;;;27.57;100.00
20013;BME280;10167;42.852;23.042;2022-08-20T12:41:38;94252.31;;;27.51;100.00
20013;BME280;10167;42.852;23.042;2022-08-20T12:49:00;94259.53;;;27.43;100.00
20013;BME280;10167;42.852;23.042;2022-08-20T12:51:28;94271.50;;;27.39;100.00
20013;BME280;10167;42.852;23.042;2022-08-20T12:53:55;94302.53;;;27.19;100.00
20013;BME280;10167;42.852;23.042;2022-08-20T12:56:23;94316.63;;;26.73;100.00
20013;BME280;10167;42.852;23.042;2022-08-20T12:58:51;94327.50;;;26.42;100.00
20013;BME280;10167;42.852;23.042;2022-08-20T13:01:18;94326.81;;;26.29;100.00
20013;BME280;10167;42.852;23.042;2022-08-20T13:03:46;94337.78;;;26.05;100.00
20013;BME280;10167;42.852;23.042;2022-08-20T13:11:18;94303.72;;;25.92;100.00
20013;BME280;10167;42.852;23.042;2022-08-20T13:13:46;94289.41;;;25.79;100.00
20013;BME280;10167;42.852;23.042;2022-08-20T13:16:14;94287.41;;;25.76;100.00
20013;BME280;10167;42.852;23.042;2022-08-20T13:18:42;94291.25;;;25.75;100.00
20013;BME280;10167;42.852;23.042;2022-08-20T13:21:11;94304.78;;;25.75;100.00
20013;BME280;10167;42.852;23.042;2022-08-20T13:23:39;94312.09;;;25.59;100.00
20013;BME280;10167;42.852;23.042;2022-08-20T13:26:07;94324.06;;;25.58;100.00
20013;BME280;10167;42.852;23.042;2022-08-20T13:33:39;94324.28;;;25.25;100.00
20013;BME280;10167;42.852;23.042;2022-08-20T13:36:07;94308.72;;;25.10;100.00
20013;BME280;10167;42.852;23.042;2022-08-20T13:38:35;94300.97;;;24.96;100.00
20013;BME280;10167;42.852;23.042;2022-08-20T13:41:03;94301.53;;;24.89;100.00
20013;BME280;10167;42.852;23.042;2022-08-20T13:43:31;94319.00;;;24.92;100.00
20013;BME280;10167;42.852;23.042;2022-08-20T13:45:59;94329.19;;;24.95;100.00
20013;BME280;10167;42.852;23.042;2022-08-20T13:48:26;94380.41;;;24.88;100.00
20013;BME280;10167;42.852;23.042;2022-08-20T13:55:08;94471.47;;;24.35;100.00
20013;BME280;10167;42.852;23.042;2022-08-20T13:57:37;94526.69;;;24.13;100.00
20013;BME280;10167;42.852;23.042;2022-08-20T14:00:07;94568.66;;;21.81;100.00
20013;BME280;10167;42.852;23.042;2022-08-20T14:02:37;94583.75;;;19.37;100.00
20013;BME280;10167;42.852;23.042;2022-08-20T14:05:05;94554.88;;;18.41;100.00
20013;BME280;10167;42.852;23.042;2022-08-20T14:07:33;94552.97;;;18.09;100.00
20013;BME280;10167;42.852;23.042;2022-08-20T14:10:04;94531.41;;;18.01;100.00
20013;BME280;10167;42.852;23.042;2022-08-20T14:15:11;94505.84;;;18.08;100.00
20013;BME280;10167;42.852;23.042;2022-08-20T14:17:41;94512.66;;;18.33;100.00
20013;BME280;10167;42.852;23.042;2022-08-20T14:20:11;94546.66;;;18.51;100.00
20013;BME280;10167;42.852;23.042;2022-08-20T14:22:39;94537.53;;;18.52;100.00
20013;BME280;10167;42.852;23.042;2022-08-20T14:25:09;94536.16;;;18.55;100.00
20013;BME280;10167;42.852;23.042;2022-08-20T14:27:37;94534.81;;;18.58;100.00
20013;BME280;10167;42.852;23.042;2022-08-20T14:30:09;94502.44;;;18.68;100.00
20013;BME280;10167;42.852;23.042;2022-08-20T14:37:38;94443.59;;;18.99;100.00
20013;BME280;10167;42.852;23.042;2022-08-20T14:40:09;94438.03;;;19.09;100.00
20013;BME280;10167;42.852;23.042;2022-08-20T14:42:37;94410.06;;;19.23;100.00
20013;BME280;10167;42.852;23.042;2022-08-20T14:45:07;94389.34;;;19.38;100.00
20013;BME280;10167;42.852;23.042;2022-08-20T14:47:38;94377.00;;;19.50;100.00
20013;BME280;10167;42.852;23.042;2022-08-20T14:50:09;94392.75;;;19.66;100.00
20013;BME280;10167;42.852;23.042;2022-08-20T14:52:38;94387.81;;;19.59;100.00
20013;BME280;10167;42.852;23.042;2022-08-20T14:59:03;94370.41;;;19.79;100.00
20013;BME280;10167;42.852;23.042;2022-08-20T15:01:31;94345.56;;;19.73;100.00
20013;BME280;10167;42.852;23.042;2022-08-20T15:03:59;94328.97;;;19.71;100.00
20013;BME280;10167;42.852;23.042;2022-08-20T15:06:27;94327.34;;;19.92;100.00
20013;BME280;10167;42.852;23.042;2022-08-20T15:08:55;94322.97;;;20.05;100.00
20013;BME280;10167;42.852;23.042;2022-08-20T15:11:23;94317.50;;;20.19;100.00
20013;BME280;10167;42.852;23.042;2022-08-20T15:13:50;94308.66;;;20.27;100.00
20013;BME280;10167;42.852;23.042;2022-08-20T15:21:19;94335.63;;;20.05;100.00
20013;BME280;10167;42.852;23.042;2022-08-20T15:23:48;94317.13;;;20.03;100.00
20013;BME280;10167;42.852;23.042;2022-08-20T15:26:16;94315.19;;;19.95;100.00
20013;BME280;10167;42.852;23.042;2022-08-20T15:28:43;94318.66;;;19.96;100.00
20013;BME280;10167;42.852;23.042;2022-08-20T15:31:12;94331.16;;;20.00;100.00
20013;BME280;10167;42.852;23.042;2022-08-20T15:33:41;94335.69;;;19.91;100.00
20013;BME280;10167;42.852;23.042;2022-08-20T15:36:08;94323.97;;;19.56;100.00
20013;BME280;10167;42.852;23.042;2022-08-20T15:43:15;94295.34;;;19.29;100.00
20013;BME280;10167;42.852;23.042;2022-08-20T15:45:42;94289.78;;;19.26;100.00
20013;BME280;10167;42.852;23.042;2022-08-20T15:48:12;94276.06;;;19.27;100.00
20013;BME280;10167;42.852;23.042;2022-08-20T15:50:53;94261.78;;;19.18;100.00
20013;BME280;10167;42.852;23.042;2022-08-20T15:53:27;94261.53;;;19.28;100.00
20013;BME280;10167;42.852;23.042;2022-08-20T15:56:03;94272.44;;;19.32;100.00
20013;BME280;10167;42.852;23.042;2022-08-20T15:58:46;94266.47;;;19.35;100.00
20013;BME280;10167;42.852;23.042;2022-08-20T16:03:10;94247.56;;;19.17;100.00
20013;BME280;10167;42.852;23.042;2022-08-20T16:05:47;94234.81;;;19.23;100.00
20013;BME280;10167;42.852;23.042;2022-08-20T16:08:40;94224.31;;;19.35;100.00
20013;BME280;10167;42.852;23.042;2022-08-20T16:11:21;94213.69;;;19.30;100.00
20013;BME280;10167;42.852;23.042;2022-08-20T16:13:54;94211.34;;;19.29;100.00
20013;BME280;10167;42.852;23.042;2022-08-20T16:16:30;94230.81;;;19.43;100.00